METAR Data
IDs: Format: Raw Decoded Include TAF

Data at: 0837 UTC 20 Sep 2018

PAHN 200754Z AUTO 00000KT 10SM CLR 06/02 A3008 RMK AO2 SLP188 T00560022 TSNO
PAHN 200654Z AUTO 00000KT 10SM CLR 06/02 A3007 RMK AO2 SLP185 T00610022 TSNO
PAHN 200554Z AUTO 00000KT 10SM CLR 07/03 A3006 RMK AO2 SLP183 T00670028 10189 20061 53012 TSNO
PAHN 200454Z AUTO 07003KT 10SM CLR 08/03 A3005 RMK AO2 SLP179 T00830033 TSNO
PAHN 200354Z AUTO 00000KT 10SM CLR 09/04 A3004 RMK AO2 SLP174 T00890039 TSNO
PAHN 200254Z AUTO 08004KT 10SM CLR 11/04 A3003 RMK AO2 SLP171 T01110044 55005 TSNO
PAHN 200154Z AUTO 14003KT 10SM CLR 14/06 A3003 RMK AO2 SLP171 T01440056 TSNO
PAHN 200054Z AUTO 29006KT 10SM CLR 18/02 A3003 RMK AO2 SLP172 T01830022 TSNO
PAHN 192354Z AUTO 30006KT 10SM SCT095 17/03 A3004 RMK AO2 SLP176 T01670033 10189 20083 56015 TSNO
PAHN 192254Z AUTO 30009KT 10SM SCT090 18/02 A3005 RMK AO2 SLP179 T01780017 TSNO
PAHN 192154Z AUTO 30012KT 10SM SCT095 17/01 A3007 RMK AO2 SLP184 T01720006 TSNO
PAHN 192054Z AUTO 30013KT 10SM FEW100 15/01 A3009 RMK AO2 SLP191 T01500006 58013 TSNO
PAHN 191954Z AUTO 29013KT 10SM OVC100 14/01 A3010 RMK AO2 SLP196 T01390011 TSNO
PAHN 191854Z AUTO 29014KT 10SM BKN100 10/02 A3012 RMK AO2 SLP201 T01000022 TSNO
PAHN 191754Z AUTO 29012KT 10SM OVC100 08/M01 A3013 RMK AO2 SLP203 T00831006 10083 20017 58005 TSNO
PAHN 191654Z AUTO 00000KT 10SM OVC100 05/01 A3014 RMK AO2 SLP209 T00500006 TSNO
PAHN 191554Z AUTO 11003KT 10SM BKN100 03/01 A3014 RMK AO2 SLP209 T00330006 TSNO
PAHN 191454Z AUTO 30011G16KT 10SM BKN100 03/M01 A3014 RMK AO2 SLP208 T00281011 50001 TSNO
PAHN 191354Z AUTO 30006KT 10SM CLR 02/M01 A3014 RMK AO2 SLP209 T00221011 TSNO
PAHN 191254Z AUTO 29012KT 10SM CLR 03/M01 A3014 RMK AO2 SLP207 T00331011 TSNO
PAHN 191154Z AUTO 29013KT 10SM CLR 04/M01 A3014 RMK AO2 SLP207 T00391006 10061 20022 58003 TSNO
PAHN 191054Z AUTO 29004KT 10SM CLR 03/M01 A3015 RMK AO2 SLP211 T00281006 TSNO
PAHN 190954Z AUTO 00000KT 10SM CLR 03/00 A3015 RMK AO2 SLP212 T00330000 TSNO
PAHN 190854Z AUTO 00000KT 10SM CLR 05/00 A3015 RMK AO2 SLP211 T00500000 401780006 51004 TSNO
PAHN 190754Z AUTO 31006KT 10SM CLR 04/00 A3015 RMK AO2 SLP210 T00440000 TSNO
PAHN 190654Z AUTO VRB03KT 10SM CLR 06/01 A3014 RMK AO2 SLP209 T00560006 TSNO
PAHN 190554Z AUTO 00000KT 10SM CLR 06/02 A3013 RMK AO2 SLP207 T00560017 10144 20028 51010 TSNO
PAHN 190454Z AUTO 00000KT 10SM CLR 06/01 A3012 RMK AO2 SLP203 T00610011 TSNO
PAHN 190354Z AUTO 00000KT 10SM CLR 05/02 A3012 RMK AO2 SLP200 T00500022 TSNO
PAHN 190254Z AUTO 00000KT 10SM CLR 09/03 A3010 RMK AO2 SLP197 T00890033 55005 TSNO
PAHN 190154Z AUTO 13003KT 10SM CLR 13/03 A3010 RMK AO2 SLP196 T01330028 TSNO
PAHN 190054Z AUTO 12003KT 10SM CLR 14/02 A3011 RMK AO2 SLP198 T01440022 TSNO
PAHN 182354Z AUTO 14005KT 10SM CLR 14/04 A3012 RMK AO2 SLP202 T01390039 10178 20067 56012 TSNO
PAHN 182254Z AUTO 14004KT 10SM CLR 14/06 A3013 RMK AO2 SLP206 T01440061 TSNO
PAHN 182154Z AUTO 30009KT 10SM CLR 16/M03 A3014 RMK AO2 SLP209 T01611028 TSNO
PAHN 182054Z AUTO 30013KT 10SM CLR 14/M03 A3015 RMK AO2 SLP214 T01441028 58014 TSNO